sensor_id;sensor_type;location;lat;lon;timestamp;pressure;altitude;pressure_sealevel;temperature;humidity
8294;BME280;4185;41.506;24.938;2023-01-31T00:00:53;92824.53;;;-1.62;87.74
8294;BME280;4185;41.506;24.938;2023-01-31T00:03:19;92826.88;;;-1.64;88.46
8294;BME280;4185;41.506;24.938;2023-01-31T00:05:48;92825.69;;;-1.63;88.11
8294;BME280;4185;41.506;24.938;2023-01-31T00:08:14;92824.94;;;-1.64;88.16
8294;BME280;4185;41.506;24.938;2023-01-31T00:10:41;92836.03;;;-1.65;88.38
8294;BME280;4185;41.506;24.938;2023-01-31T00:13:08;92842.97;;;-1.68;88.86
8294;BME280;4185;41.506;24.938;2023-01-31T00:15:35;92837.06;;;-1.75;89.60
8294;BME280;4185;41.506;24.938;2023-01-31T00:18:02;92829.94;;;-1.78;90.74
8294;BME280;4185;41.506;24.938;2023-01-31T00:20:29;92815.78;;;-1.75;91.14
8294;BME280;4185;41.506;24.938;2023-01-31T00:22:57;92828.75;;;-1.77;91.60
8294;BME280;4185;41.506;24.938;2023-01-31T00:25:24;92836.22;;;-1.72;91.41
8294;BME280;4185;41.506;24.938;2023-01-31T00:27:51;92846.03;;;-1.69;91.19
8294;BME280;4185;41.506;24.938;2023-01-31T00:30:18;92838.34;;;-1.67;91.09
8294;BME280;4185;41.506;24.938;2023-01-31T00:32:44;92830.69;;;-1.65;91.26
8294;BME280;4185;41.506;24.938;2023-01-31T00:35:11;92828.38;;;-1.63;91.05
8294;BME280;4185;41.506;24.938;2023-01-31T00:37:38;92826.03;;;-1.61;90.51
8294;BME280;4185;41.506;24.938;2023-01-31T00:40:08;92827.94;;;-1.62;90.65
8294;BME280;4185;41.506;24.938;2023-01-31T00:42:35;92826.66;;;-1.57;90.90
8294;BME280;4185;41.506;24.938;2023-01-31T00:45:02;92809.19;;;-1.58;90.75
8294;BME280;4185;41.506;24.938;2023-01-31T00:47:29;92804.84;;;-1.65;90.39
8294;BME280;4185;41.506;24.938;2023-01-31T00:49:56;92822.09;;;-1.69;90.55
8294;BME280;4185;41.506;24.938;2023-01-31T00:52:22;92819.81;;;-1.71;90.87
8294;BME280;4185;41.506;24.938;2023-01-31T00:54:49;92814.09;;;-1.69;90.82
8294;BME280;4185;41.506;24.938;2023-01-31T00:57:17;92815.69;;;-1.72;90.74
8294;BME280;4185;41.506;24.938;2023-01-31T00:59:44;92806.50;;;-1.71;91.05
8294;BME280;4185;41.506;24.938;2023-01-31T01:02:11;92811.09;;;-1.71;91.06
8294;BME280;4185;41.506;24.938;2023-01-31T01:04:38;92809.41;;;-1.78;90.57
8294;BME280;4185;41.506;24.938;2023-01-31T01:07:05;92809.81;;;-1.79;91.86
8294;BME280;4185;41.506;24.938;2023-01-31T01:09:32;92809.81;;;-1.79;91.51
8294;BME280;4185;41.506;24.938;2023-01-31T01:11:58;92802.25;;;-1.81;92.89
8294;BME280;4185;41.506;24.938;2023-01-31T01:14:27;92809.94;;;-1.70;92.60
8294;BME280;4185;41.506;24.938;2023-01-31T01:16:53;92809.31;;;-1.62;92.42
8294;BME280;4185;41.506;24.938;2023-01-31T01:19:22;92803.31;;;-1.66;92.81
8294;BME280;4185;41.506;24.938;2023-01-31T01:21:49;92804.19;;;-1.56;92.52
8294;BME280;4185;41.506;24.938;2023-01-31T01:24:18;92802.81;;;-1.48;92.46
8294;BME280;4185;41.506;24.938;2023-01-31T01:26:45;92789.63;;;-1.39;91.68
8294;BME280;4185;41.506;24.938;2023-01-31T01:29:12;92798.53;;;-1.33;91.27
8294;BME280;4185;41.506;24.938;2023-01-31T01:31:41;92793.97;;;-1.33;90.81
8294;BME280;4185;41.506;24.938;2023-01-31T01:34:11;92792.34;;;-1.30;90.56
8294;BME280;4185;41.506;24.938;2023-01-31T01:36:39;92799.53;;;-1.27;90.31
8294;BME280;4185;41.506;24.938;2023-01-31T01:39:09;92808.13;;;-1.23;90.34
8294;BME280;4185;41.506;24.938;2023-01-31T01:41:38;92799.53;;;-1.27;90.03
8294;BME280;4185;41.506;24.938;2023-01-31T01:47:13;92808.97;;;-1.39;91.65
8294;BME280;4185;41.506;24.938;2023-01-31T01:49:44;92807.41;;;-1.36;91.51
8294;BME280;4185;41.506;24.938;2023-01-31T01:52:13;92811.66;;;-1.26;91.44
8294;BME280;4185;41.506;24.938;2023-01-31T01:54:45;92814.97;;;-1.22;90.98
8294;BME280;4185;41.506;24.938;2023-01-31T01:57:17;92808.78;;;-1.19;90.83
8294;BME280;4185;41.506;24.938;2023-01-31T01:59:49;92798.97;;;-1.22;90.58
8294;BME280;4185;41.506;24.938;2023-01-31T02:02:19;92800.34;;;-1.17;90.87
8294;BME280;4185;41.506;24.938;2023-01-31T02:04:48;92800.47;;;-1.08;91.12
8294;BME280;4185;41.506;24.938;2023-01-31T02:07:16;92810.91;;;-1.14;90.96
8294;BME280;4185;41.506;24.938;2023-01-31T02:09:48;92798.22;;;-1.10;91.05
8294;BME280;4185;41.506;24.938;2023-01-31T02:12:17;92808.34;;;-1.05;91.41
8294;BME280;4185;41.506;24.938;2023-01-31T02:14:45;92801.41;;;-1.02;90.83
8294;BME280;4185;41.506;24.938;2023-01-31T02:17:13;92814.94;;;-0.97;90.30
8294;BME280;4185;41.506;24.938;2023-01-31T02:19:49;92811.41;;;-0.94;89.86
8294;BME280;4185;41.506;24.938;2023-01-31T02:22:22;92825.06;;;-0.92;89.44
8294;BME280;4185;41.506;24.938;2023-01-31T02:25:18;92822.94;;;-0.97;89.70
8294;BME280;4185;41.506;24.938;2023-01-31T02:28:17;92829.41;;;-0.98;90.67
8294;BME280;4185;41.506;24.938;2023-01-31T02:31:20;92832.41;;;-0.96;90.94
8294;BME280;4185;41.506;24.938;2023-01-31T02:33:58;92840.09;;;-0.98;90.44
8294;BME280;4185;41.506;24.938;2023-01-31T02:36:35;92840.84;;;-0.97;90.06
8294;BME280;4185;41.506;24.938;2023-01-31T02:39:12;92848.63;;;-1.03;89.75
8294;BME280;4185;41.506;24.938;2023-01-31T02:41:47;92850.84;;;-1.01;90.72
8294;BME280;4185;41.506;24.938;2023-01-31T02:44:22;92847.69;;;-0.96;90.87
8294;BME280;4185;41.506;24.938;2023-01-31T02:47:15;92853.19;;;-0.91;89.93
8294;BME280;4185;41.506;24.938;2023-01-31T02:49:50;92849.81;;;-0.91;89.47
8294;BME280;4185;41.506;24.938;2023-01-31T02:52:34;92855.25;;;-0.95;90.39
8294;BME280;4185;41.506;24.938;2023-01-31T02:55:09;92855.97;;;-0.94;90.79
8294;BME280;4185;41.506;24.938;2023-01-31T02:57:57;92852.25;;;-0.97;90.83
8294;BME280;4185;41.506;24.938;2023-01-31T03:00:25;92860.69;;;-0.98;90.73
8294;BME280;4185;41.506;24.938;2023-01-31T03:02:52;92849.38;;;-1.02;91.28
8294;BME280;4185;41.506;24.938;2023-01-31T03:05:20;92855.03;;;-1.00;91.42
8294;BME280;4185;41.506;24.938;2023-01-31T03:07:51;92850.75;;;-0.98;91.57
8294;BME280;4185;41.506;24.938;2023-01-31T03:10:28;92847.78;;;-1.00;91.00
8294;BME280;4185;41.506;24.938;2023-01-31T03:13:06;92850.75;;;-0.98;91.17
8294;BME280;4185;41.506;24.938;2023-01-31T03:15:41;92852.88;;;-0.93;91.68
8294;BME280;4185;41.506;24.938;2023-01-31T03:18:35;92849.03;;;-0.92;91.08
8294;BME280;4185;41.506;24.938;2023-01-31T03:21:08;92843.94;;;-0.99;91.28
8294;BME280;4185;41.506;24.938;2023-01-31T03:23:40;92841.59;;;-0.97;91.68
8294;BME280;4185;41.506;24.938;2023-01-31T03:26:09;92837.75;;;-0.96;91.70
8294;BME280;4185;41.506;24.938;2023-01-31T03:28:38;92834.66;;;-0.94;92.30
8294;BME280;4185;41.506;24.938;2023-01-31T03:31:10;92833.06;;;-0.92;91.54
8294;BME280;4185;41.506;24.938;2023-01-31T03:33:43;92836.47;;;-0.91;91.44
8294;BME280;4185;41.506;24.938;2023-01-31T03:36:18;92823.75;;;-0.87;91.19
8294;BME280;4185;41.506;24.938;2023-01-31T03:38:56;92824.50;;;-0.87;91.43
8294;BME280;4185;41.506;24.938;2023-01-31T03:41:27;92823.88;;;-0.91;91.48
8294;BME280;4185;41.506;24.938;2023-01-31T03:44:00;92823.75;;;-0.87;92.12
8294;BME280;4185;41.506;24.938;2023-01-31T03:46:33;92824.50;;;-0.87;91.59
8294;BME280;4185;41.506;24.938;2023-01-31T03:49:03;92828.59;;;-0.95;91.72
8294;BME280;4185;41.506;24.938;2023-01-31T03:51:36;92824.09;;;-0.98;92.64
8294;BME280;4185;41.506;24.938;2023-01-31T03:54:07;92819.00;;;-1.05;93.55
8294;BME280;4185;41.506;24.938;2023-01-31T03:56:38;92808.34;;;-1.05;94.15
8294;BME280;4185;41.506;24.938;2023-01-31T03:59:11;92807.50;;;-1.02;94.07
8294;BME280;4185;41.506;24.938;2023-01-31T04:01:42;92802.88;;;-1.01;93.83
8294;BME280;4185;41.506;24.938;2023-01-31T04:04:15;92806.72;;;-1.02;94.36
8294;BME280;4185;41.506;24.938;2023-01-31T04:06:45;92796.81;;;-1.02;94.29
8294;BME280;4185;41.506;24.938;2023-01-31T04:09:12;92795.97;;;-0.99;94.14
8294;BME280;4185;41.506;24.938;2023-01-31T04:11:40;92792.97;;;-1.01;94.28
8294;BME280;4185;41.506;24.938;2023-01-31T04:14:08;92790.00;;;-1.03;94.42
8294;BME280;4185;41.506;24.938;2023-01-31T04:16:35;92792.34;;;-1.05;94.82
8294;BME280;4185;41.506;24.938;2023-01-31T04:19:02;92782.53;;;-1.08;94.67
8294;BME280;4185;41.506;24.938;2023-01-31T04:21:30;92778.81;;;-1.10;95.46
8294;BME280;4185;41.506;24.938;2023-01-31T04:23:58;92792.25;;;-1.14;95.67
8294;BME280;4185;41.506;24.938;2023-01-31T04:26:25;92792.56;;;-1.12;96.03
8294;BME280;4185;41.506;24.938;2023-01-31T04:28:52;92791.50;;;-1.02;95.76
8294;BME280;4185;41.506;24.938;2023-01-31T04:31:19;92787.44;;;-0.94;95.50
8294;BME280;4185;41.506;24.938;2023-01-31T04:33:45;92791.03;;;-0.88;95.16
8294;BME280;4185;41.506;24.938;2023-01-31T04:36:12;92788.78;;;-0.89;94.94
8294;BME280;4185;41.506;24.938;2023-01-31T04:38:39;92799.34;;;-0.86;95.16
8294;BME280;4185;41.506;24.938;2023-01-31T04:41:07;92790.06;;;-0.81;95.47
8294;BME280;4185;41.506;24.938;2023-01-31T04:43:34;92791.03;;;-0.88;95.82
8294;BME280;4185;41.506;24.938;2023-01-31T04:46:01;92787.19;;;-0.87;95.43
8294;BME280;4185;41.506;24.938;2023-01-31T04:48:28;92791.34;;;-0.86;95.51
8294;BME280;4185;41.506;24.938;2023-01-31T04:50:55;92793.06;;;-0.92;95.49
8294;BME280;4185;41.506;24.938;2023-01-31T04:53:21;92794.75;;;-0.85;95.61
8294;BME280;4185;41.506;24.938;2023-01-31T04:55:48;92794.00;;;-0.86;95.38
8294;BME280;4185;41.506;24.938;2023-01-31T04:58:17;92794.00;;;-0.86;95.21
8294;BME280;4185;41.506;24.938;2023-01-31T05:00:43;92808.19;;;-0.89;95.24
8294;BME280;4185;41.506;24.938;2023-01-31T05:03:10;92797.00;;;-0.84;95.21
8294;BME280;4185;41.506;24.938;2023-01-31T05:05:37;92801.03;;;-0.79;94.97
8294;BME280;4185;41.506;24.938;2023-01-31T05:08:04;92803.69;;;-0.79;94.86
8294;BME280;4185;41.506;24.938;2023-01-31T05:10:33;92809.78;;;-0.79;94.70
8294;BME280;4185;41.506;24.938;2023-01-31T05:13:00;92822.69;;;-0.77;94.86
8294;BME280;4185;41.506;24.938;2023-01-31T05:15:28;92824.63;;;-0.78;94.85
8294;BME280;4185;41.506;24.938;2023-01-31T05:17:55;92826.41;;;-0.75;95.09
8294;BME280;4185;41.506;24.938;2023-01-31T05:20:27;92827.03;;;-0.71;94.78
8294;BME280;4185;41.506;24.938;2023-01-31T05:22:55;92818.09;;;-0.77;94.98
8294;BME280;4185;41.506;24.938;2023-01-31T05:25:22;92833.88;;;-0.70;94.78
8294;BME280;4185;41.506;24.938;2023-01-31T05:27:49;92827.28;;;-0.78;95.05
8294;BME280;4185;41.506;24.938;2023-01-31T05:30:17;92835.69;;;-0.79;95.50
8294;BME280;4185;41.506;24.938;2023-01-31T05:32:45;92830.25;;;-0.76;95.48
8294;BME280;4185;41.506;24.938;2023-01-31T05:35:14;92835.03;;;-0.71;95.40
8294;BME280;4185;41.506;24.938;2023-01-31T05:37:42;92843.66;;;-0.67;95.02
8294;BME280;4185;41.506;24.938;2023-01-31T05:40:13;92846.56;;;-0.74;95.11
8294;BME280;4185;41.506;24.938;2023-01-31T05:42:40;92853.06;;;-0.75;95.42
8294;BME280;4185;41.506;24.938;2023-01-31T05:45:08;92859.56;;;-0.76;95.05
8294;BME280;4185;41.506;24.938;2023-01-31T05:47:35;92855.53;;;-0.80;95.07
8294;BME280;4185;41.506;24.938;2023-01-31T05:50:04;92860.09;;;-0.81;95.19
8294;BME280;4185;41.506;24.938;2023-01-31T05:52:31;92863.84;;;-0.78;95.34
8294;BME280;4185;41.506;24.938;2023-01-31T05:54:58;92872.06;;;-0.73;95.60
8294;BME280;4185;41.506;24.938;2023-01-31T05:57:25;92871.31;;;-0.73;94.30
8294;BME280;4185;41.506;24.938;2023-01-31T05:59:52;92872.91;;;-0.76;94.14
8294;BME280;4185;41.506;24.938;2023-01-31T06:02:19;92877.69;;;-0.71;94.42
8294;BME280;4185;41.506;24.938;2023-01-31T06:04:46;92877.03;;;-0.62;94.12
8294;BME280;4185;41.506;24.938;2023-01-31T06:07:15;92872.22;;;-0.55;93.91
8294;BME280;4185;41.506;24.938;2023-01-31T06:09:41;92875.72;;;-0.45;93.17
8294;BME280;4185;41.506;24.938;2023-01-31T06:12:11;92878.06;;;-0.47;92.90
8294;BME280;4185;41.506;24.938;2023-01-31T06:14:39;92887.03;;;-0.41;93.17
8294;BME280;4185;41.506;24.938;2023-01-31T06:17:06;92870.47;;;-0.36;89.63
8294;BME280;4185;41.506;24.938;2023-01-31T06:19:34;92881.84;;;-0.23;88.44
8294;BME280;4185;41.506;24.938;2023-01-31T06:22:00;92888.50;;;-0.28;87.72
8294;BME280;4185;41.506;24.938;2023-01-31T06:24:29;92886.31;;;-0.20;82.03
8294;BME280;4185;41.506;24.938;2023-01-31T06:26:55;92889.78;;;0.02;80.30
8294;BME280;4185;41.506;24.938;2023-01-31T06:29:22;92887.50;;;0.13;78.28
8294;BME280;4185;41.506;24.938;2023-01-31T06:31:49;92893.03;;;0.19;77.09
8294;BME280;4185;41.506;24.938;2023-01-31T06:34:18;92894.72;;;0.25;77.11
8294;BME280;4185;41.506;24.938;2023-01-31T06:36:45;92905.16;;;0.32;74.75
8294;BME280;4185;41.506;24.938;2023-01-31T06:39:17;92904.75;;;0.43;69.64
8294;BME280;4185;41.506;24.938;2023-01-31T06:41:49;92915.72;;;0.57;66.16
8294;BME280;4185;41.506;24.938;2023-01-31T06:44:15;92904.38;;;0.75;65.19
8294;BME280;4185;41.506;24.938;2023-01-31T06:46:42;92916.91;;;0.87;64.33
8294;BME280;4185;41.506;24.938;2023-01-31T06:49:09;92922.00;;;0.94;62.05
8294;BME280;4185;41.506;24.938;2023-01-31T06:51:38;92935.44;;;1.03;60.35
8294;BME280;4185;41.506;24.938;2023-01-31T06:54:05;92936.34;;;1.09;60.51
8294;BME280;4185;41.506;24.938;2023-01-31T06:56:31;92944.97;;;1.13;61.61
8294;BME280;4185;41.506;24.938;2023-01-31T06:59:00;92950.53;;;1.27;58.65
8294;BME280;4185;41.506;24.938;2023-01-31T07:01:27;92948.03;;;1.33;58.14
8294;BME280;4185;41.506;24.938;2023-01-31T07:03:53;92960.09;;;1.38;57.74
8294;BME280;4185;41.506;24.938;2023-01-31T07:06:20;92971.41;;;1.42;57.89
8294;BME280;4185;41.506;24.938;2023-01-31T07:08:47;92967.09;;;1.44;58.94
8294;BME280;4185;41.506;24.938;2023-01-31T07:11:14;92962.69;;;1.50;58.58
8294;BME280;4185;41.506;24.938;2023-01-31T07:13:41;92974.09;;;1.51;59.08
8294;BME280;4185;41.506;24.938;2023-01-31T07:16:11;92975.47;;;1.55;58.69
8294;BME280;4185;41.506;24.938;2023-01-31T07:18:38;92969.25;;;1.58;58.04
8294;BME280;4185;41.506;24.938;2023-01-31T07:21:05;92960.63;;;1.63;58.63
8294;BME280;4185;41.506;24.938;2023-01-31T07:23:32;92961.97;;;1.68;58.87
8294;BME280;4185;41.506;24.938;2023-01-31T07:26:02;92971.38;;;1.72;59.78
8294;BME280;4185;41.506;24.938;2023-01-31T07:28:29;92977.31;;;1.76;58.26
8294;BME280;4185;41.506;24.938;2023-01-31T07:31:02;92969.28;;;1.76;55.96
8294;BME280;4185;41.506;24.938;2023-01-31T07:33:31;92981.81;;;1.79;58.18
8294;BME280;4185;41.506;24.938;2023-01-31T07:36:00;92982.84;;;1.82;57.00
8294;BME280;4185;41.506;24.938;2023-01-31T07:38:27;92982.72;;;1.85;56.81
8294;BME280;4185;41.506;24.938;2023-01-31T07:40:57;92981.06;;;1.88;57.05
8294;BME280;4185;41.506;24.938;2023-01-31T07:43:24;92974.09;;;1.90;58.92
8294;BME280;4185;41.506;24.938;2023-01-31T07:45:51;92967.13;;;1.93;57.45
8294;BME280;4185;41.506;24.938;2023-01-31T07:48:18;92980.78;;;1.95;56.22
8294;BME280;4185;41.506;24.938;2023-01-31T07:50:50;92969.94;;;1.98;56.30
8294;BME280;4185;41.506;24.938;2023-01-31T07:53:17;92982.88;;;2.00;55.10
8294;BME280;4185;41.506;24.938;2023-01-31T07:55:44;92971.31;;;2.03;56.50
8294;BME280;4185;41.506;24.938;2023-01-31T07:58:12;92965.50;;;2.04;56.10
8294;BME280;4185;41.506;24.938;2023-01-31T08:00:39;92977.25;;;2.07;56.03
8294;BME280;4185;41.506;24.938;2023-01-31T08:03:25;92982.47;;;2.10;56.08
8294;BME280;4185;41.506;24.938;2023-01-31T08:06:00;92972.34;;;2.05;53.63
8294;BME280;4185;41.506;24.938;2023-01-31T08:08:28;92976.97;;;2.14;53.11
8294;BME280;4185;41.506;24.938;2023-01-31T08:10:55;92987.81;;;2.10;54.18
8294;BME280;4185;41.506;24.938;2023-01-31T08:13:21;92974.13;;;2.08;53.18
8294;BME280;4185;41.506;24.938;2023-01-31T08:15:51;92981.72;;;2.10;52.70
8294;BME280;4185;41.506;24.938;2023-01-31T08:18:18;92983.97;;;2.11;54.38
8294;BME280;4185;41.506;24.938;2023-01-31T08:20:55;92981.56;;;2.13;54.83
8294;BME280;4185;41.506;24.938;2023-01-31T08:23:27;92970.00;;;2.16;55.55
8294;BME280;4185;41.506;24.938;2023-01-31T08:26:02;92984.13;;;2.17;52.79
8294;BME280;4185;41.506;24.938;2023-01-31T08:28:30;92986.94;;;2.22;53.73
8294;BME280;4185;41.506;24.938;2023-01-31T08:30:57;92985.47;;;2.21;54.71
8294;BME280;4185;41.506;24.938;2023-01-31T08:33:24;92992.94;;;2.26;52.74
8294;BME280;4185;41.506;24.938;2023-01-31T08:35:51;92994.56;;;2.33;53.63
8294;BME280;4185;41.506;24.938;2023-01-31T08:38:18;93002.91;;;2.35;53.00
8294;BME280;4185;41.506;24.938;2023-01-31T08:40:46;93003.63;;;2.35;53.01
8294;BME280;4185;41.506;24.938;2023-01-31T08:43:14;93001.41;;;2.34;53.77
8294;BME280;4185;41.506;24.938;2023-01-31T08:45:41;93003.78;;;2.32;52.58
8294;BME280;4185;41.506;24.938;2023-01-31T08:48:08;93009.75;;;2.36;54.03
8294;BME280;4185;41.506;24.938;2023-01-31T08:50:35;93020.31;;;2.39;53.13
8294;BME280;4185;41.506;24.938;2023-01-31T08:53:03;93010.94;;;2.44;52.42
8294;BME280;4185;41.506;24.938;2023-01-31T08:55:33;93010.50;;;2.45;52.96
8294;BME280;4185;41.506;24.938;2023-01-31T08:58:02;93013.78;;;2.49;53.52
8294;BME280;4185;41.506;24.938;2023-01-31T09:00:29;93010.50;;;2.55;53.92
8294;BME280;4185;41.506;24.938;2023-01-31T09:02:57;93020.94;;;2.62;53.63
8294;BME280;4185;41.506;24.938;2023-01-31T09:05:24;93014.25;;;2.66;53.13
8294;BME280;4185;41.506;24.938;2023-01-31T09:07:52;93008.28;;;2.71;52.65
8294;BME280;4185;41.506;24.938;2023-01-31T09:10:20;93013.66;;;2.71;52.16
8294;BME280;4185;41.506;24.938;2023-01-31T09:12:47;93025.28;;;2.77;52.27
8294;BME280;4185;41.506;24.938;2023-01-31T09:15:16;93017.09;;;2.81;51.60
8294;BME280;4185;41.506;24.938;2023-01-31T09:17:43;93015.59;;;2.89;52.87
8294;BME280;4185;41.506;24.938;2023-01-31T09:20:10;93009.47;;;2.88;51.47
8294;BME280;4185;41.506;24.938;2023-01-31T09:22:37;93020.94;;;2.98;52.04
8294;BME280;4185;41.506;24.938;2023-01-31T09:25:05;93012.00;;;3.01;50.87
8294;BME280;4185;41.506;24.938;2023-01-31T09:27:32;93014.38;;;3.08;51.67
8294;BME280;4185;41.506;24.938;2023-01-31T09:29:59;92999.63;;;3.12;52.08
8294;BME280;4185;41.506;24.938;2023-01-31T09:32:27;92995.31;;;3.06;51.69
8294;BME280;4185;41.506;24.938;2023-01-31T09:34:56;92989.94;;;3.06;50.81
8294;BME280;4185;41.506;24.938;2023-01-31T09:37:23;93009.03;;;2.99;49.45
8294;BME280;4185;41.506;24.938;2023-01-31T09:39:50;92992.94;;;2.99;50.11
8294;BME280;4185;41.506;24.938;2023-01-31T09:42:21;92993.94;;;3.01;51.29
8294;BME280;4185;41.506;24.938;2023-01-31T09:44:56;92986.94;;;3.13;51.08
8294;BME280;4185;41.506;24.938;2023-01-31T09:47:27;92992.13;;;3.25;51.32
8294;BME280;4185;41.506;24.938;2023-01-31T09:49:57;92987.31;;;3.38;51.24
8294;BME280;4185;41.506;24.938;2023-01-31T09:52:26;92988.59;;;3.61;50.46
8294;BME280;4185;41.506;24.938;2023-01-31T09:54:55;92982.63;;;3.66;50.83
8294;BME280;4185;41.506;24.938;2023-01-31T09:57:28;92986.00;;;3.75;49.62
8294;BME280;4185;41.506;24.938;2023-01-31T10:00:07;92978.47;;;3.56;47.40
8294;BME280;4185;41.506;24.938;2023-01-31T10:06:01;92967.09;;;3.70;49.83
8294;BME280;4185;41.506;24.938;2023-01-31T10:08:39;92984.94;;;3.82;49.50
8294;BME280;4185;41.506;24.938;2023-01-31T10:11:14;92975.97;;;3.85;49.29
8294;BME280;4185;41.506;24.938;2023-01-31T10:13:47;92975.47;;;3.96;48.70
8294;BME280;4185;41.506;24.938;2023-01-31T10:16:20;92965.88;;;4.04;47.12
8294;BME280;4185;41.506;24.938;2023-01-31T10:18:53;92964.22;;;4.06;48.14
8294;BME280;4185;41.506;24.938;2023-01-31T10:21:29;92966.09;;;4.38;47.96
8294;BME280;4185;41.506;24.938;2023-01-31T10:24:00;92963.75;;;4.55;48.69
8294;BME280;4185;41.506;24.938;2023-01-31T10:26:31;92964.09;;;4.48;47.17
8294;BME280;4185;41.506;24.938;2023-01-31T10:29:02;92958.06;;;4.76;45.85
8294;BME280;4185;41.506;24.938;2023-01-31T10:31:33;92962.09;;;5.25;46.58
8294;BME280;4185;41.506;24.938;2023-01-31T10:34:06;92954.56;;;4.99;45.55
8294;BME280;4185;41.506;24.938;2023-01-31T10:36:42;92947.88;;;4.95;45.13
8294;BME280;4185;41.506;24.938;2023-01-31T10:39:17;92951.56;;;4.97;46.52
8294;BME280;4185;41.506;24.938;2023-01-31T10:42:04;92949.06;;;4.79;46.47
8294;BME280;4185;41.506;24.938;2023-01-31T10:44:40;92950.22;;;4.64;46.61
8294;BME280;4185;41.506;24.938;2023-01-31T10:47:11;92960.16;;;4.72;47.37
8294;BME280;4185;41.506;24.938;2023-01-31T10:49:40;92953.06;;;4.98;46.75
8294;BME280;4185;41.506;24.938;2023-01-31T10:52:40;92951.69;;;4.88;45.70
8294;BME280;4185;41.506;24.938;2023-01-31T10:55:26;92955.06;;;4.74;44.29
8294;BME280;4185;41.506;24.938;2023-01-31T10:57:56;92951.91;;;4.61;45.46
8294;BME280;4185;41.506;24.938;2023-01-31T11:00:27;92942.56;;;4.71;46.55
8294;BME280;4185;41.506;24.938;2023-01-31T11:02:56;92938.59;;;4.81;46.51
8294;BME280;4185;41.506;24.938;2023-01-31T11:05:24;92945.84;;;4.90;43.71
8294;BME280;4185;41.506;24.938;2023-01-31T11:07:55;92940.16;;;4.73;43.57
8294;BME280;4185;41.506;24.938;2023-01-31T11:10:24;92942.56;;;4.71;45.11
8294;BME280;4185;41.506;24.938;2023-01-31T11:12:53;92937.59;;;4.55;45.43
8294;BME280;4185;41.506;24.938;2023-01-31T11:15:23;92946.94;;;4.45;45.82
8294;BME280;4185;41.506;24.938;2023-01-31T11:17:51;92949.63;;;4.45;46.62
8294;BME280;4185;41.506;24.938;2023-01-31T11:20:23;92946.25;;;4.36;46.33
8294;BME280;4185;41.506;24.938;2023-01-31T11:22:51;92946.44;;;4.32;47.29
8294;BME280;4185;41.506;24.938;2023-01-31T11:25:21;92939.69;;;4.37;47.35
8294;BME280;4185;41.506;24.938;2023-01-31T11:27:52;92938.75;;;4.40;47.33
8294;BME280;4185;41.506;24.938;2023-01-31T11:30:22;92930.31;;;4.32;47.46
8294;BME280;4185;41.506;24.938;2023-01-31T11:32:51;92940.66;;;4.25;48.12
8294;BME280;4185;41.506;24.938;2023-01-31T11:35:24;92935.81;;;4.14;48.82
8294;BME280;4185;41.506;24.938;2023-01-31T11:37:52;92946.59;;;4.05;47.87
8294;BME280;4185;41.506;24.938;2023-01-31T11:40:26;92951.09;;;3.99;48.36
8294;BME280;4185;41.506;24.938;2023-01-31T11:42:56;92944.84;;;4.02;48.59
8294;BME280;4185;41.506;24.938;2023-01-31T11:45:24;92946.59;;;4.05;46.75
8294;BME280;4185;41.506;24.938;2023-01-31T11:47:54;92945.56;;;4.03;47.18
8294;BME280;4185;41.506;24.938;2023-01-31T11:50:24;92941.69;;;4.04;47.32
8294;BME280;4185;41.506;24.938;2023-01-31T11:52:56;92942.63;;;4.01;47.50
8294;BME280;4185;41.506;24.938;2023-01-31T11:55:25;92936.19;;;3.98;46.50
8294;BME280;4185;41.506;24.938;2023-01-31T11:57:55;92947.41;;;3.97;48.50
8294;BME280;4185;41.506;24.938;2023-01-31T12:00:25;92952.34;;;3.89;47.58
8294;BME280;4185;41.506;24.938;2023-01-31T12:02:59;92962.69;;;3.82;48.68
8294;BME280;4185;41.506;24.938;2023-01-31T12:05:45;92952.59;;;3.77;48.38
8294;BME280;4185;41.506;24.938;2023-01-31T12:08:27;92942.84;;;3.79;48.88
8294;BME280;4185;41.506;24.938;2023-01-31T12:10:56;92941.97;;;3.82;48.95
8294;BME280;4185;41.506;24.938;2023-01-31T12:13:23;92947.59;;;3.84;49.59
8294;BME280;4185;41.506;24.938;2023-01-31T12:15:53;92941.34;;;3.87;49.87
8294;BME280;4185;41.506;24.938;2023-01-31T12:18:42;92940.88;;;3.89;49.29
8294;BME280;4185;41.506;24.938;2023-01-31T12:21:13;92948.50;;;3.90;49.71
8294;BME280;4185;41.506;24.938;2023-01-31T12:23:50;92957.47;;;3.87;49.52
8294;BME280;4185;41.506;24.938;2023-01-31T12:26:28;92953.59;;;3.79;49.72
8294;BME280;4185;41.506;24.938;2023-01-31T12:29:09;92963.47;;;3.82;50.07
8294;BME280;4185;41.506;24.938;2023-01-31T12:31:55;92957.50;;;3.78;49.56
8294;BME280;4185;41.506;24.938;2023-01-31T12:34:33;92959.88;;;3.76;48.97
8294;BME280;4185;41.506;24.938;2023-01-31T12:37:23;92971.84;;;3.75;49.50
8294;BME280;4185;41.506;24.938;2023-01-31T12:40:03;92967.38;;;3.72;50.35
8294;BME280;4185;41.506;24.938;2023-01-31T12:42:44;92967.25;;;3.66;50.96
8294;BME280;4185;41.506;24.938;2023-01-31T12:45:30;92966.78;;;3.68;50.86
8294;BME280;4185;41.506;24.938;2023-01-31T12:48:31;92963.53;;;3.64;51.79
8294;BME280;4185;41.506;24.938;2023-01-31T12:51:08;92975.00;;;3.64;51.05
8294;BME280;4185;41.506;24.938;2023-01-31T12:53:46;92975.59;;;3.68;51.22
8294;BME280;4185;41.506;24.938;2023-01-31T12:56:25;92970.34;;;3.74;50.36
8294;BME280;4185;41.506;24.938;2023-01-31T12:59:04;92968.22;;;3.87;50.79
8294;BME280;4185;41.506;24.938;2023-01-31T13:01:38;92969.91;;;3.99;50.53
8294;BME280;4185;41.506;24.938;2023-01-31T13:04:28;92964.00;;;4.19;49.78
8294;BME280;4185;41.506;24.938;2023-01-31T13:06:59;92956.22;;;4.97;48.99
8294;BME280;4185;41.506;24.938;2023-01-31T13:09:30;92953.78;;;5.72;47.53
8294;BME280;4185;41.506;24.938;2023-01-31T13:12:01;92954.69;;;6.53;44.89
8294;BME280;4185;41.506;24.938;2023-01-31T13:14:35;92961.13;;;7.26;43.32
8294;BME280;4185;41.506;24.938;2023-01-31T13:17:04;92963.88;;;7.58;42.47
8294;BME280;4185;41.506;24.938;2023-01-31T13:19:35;92964.38;;;7.10;43.52
8294;BME280;4185;41.506;24.938;2023-01-31T13:22:11;92978.88;;;6.27;43.76
8294;BME280;4185;41.506;24.938;2023-01-31T13:24:42;92952.97;;;5.66;44.66
8294;BME280;4185;41.506;24.938;2023-01-31T13:27:16;92965.91;;;5.47;45.38
8294;BME280;4185;41.506;24.938;2023-01-31T13:29:50;92968.84;;;5.64;46.94
8294;BME280;4185;41.506;24.938;2023-01-31T13:32:26;92973.72;;;8.76;43.12
8294;BME280;4185;41.506;24.938;2023-01-31T13:34:58;92974.34;;;12.66;36.65
8294;BME280;4185;41.506;24.938;2023-01-31T13:37:27;92967.97;;;11.69;35.26
8294;BME280;4185;41.506;24.938;2023-01-31T13:39:58;92961.06;;;10.59;36.82
8294;BME280;4185;41.506;24.938;2023-01-31T13:42:28;92962.56;;;15.09;33.13